Terminal Aerodrome Forecast
Issued by NWS

Home | Current Version | Previous Version | Text Only | Print | Product List | Glossary On
Versions: 1 2 3 4 5 6 7 8 9 10 11 12 13 14 15
000
FTUS42 KTBW 222320
TAFRSW
TAF
KRSW 222320Z 2300/2324 12006KT P6SM FEW035 OVC250
     FM231500 15010KT P6SM VCSH SCT025 OVC060
     FM231800 18010G16KT P6SM -SHRA VCTS SCT035CB OVC080
     FM232200 21008KT 6SM SHRA VCTS SCT040CB OVC100=

USA.gov is the U.S. government's official web portal to all federal, state and local government web resources and services.